Time;durP1;ratioP1;P1;durP2;ratioP2;P2;SDS_P1;SDS_P2;PMS_P1;PMS_P2;Temp;Humidity;BMP_temperature;BMP_pressure;BME280_temperature;BME280_humidity;BME280_pressure;Samples;Min_cycle;Max_cycle;Signal;HPM_P1;HPM_P2
2023/03/20 00:01:54;;;;;;;;;;;17.70;68.20;;;;;;10070820;28;91770;-67
2023/03/20 00:06:55;;;;;;;;;;;17.70;67.90;;;;;;10070550;28;93556;-67
2023/03/20 00:11:58;;;;;;;;;;;17.70;68.00;;;;;;10087251;28;94472;-67
2023/03/20 00:16:59;;;;;;;;;;;17.70;68.20;;;;;;10085376;28;95894;-67
2023/03/20 00:22:01;;;;;;;;;;;17.70;67.90;;;;;;10091249;28;96325;-67
2023/03/20 00:27:04;;;;;;;;;;;17.70;67.90;;;;;;10100133;28;93485;-67
2023/03/20 00:32:11;;;;;;;;;;;17.70;67.90;;;;;;10100040;28;93528;-66
2023/03/20 00:37:12;;;;;;;;;;;17.70;67.90;;;;;;10098861;28;93661;-67
2023/03/20 00:42:24;;;;;;;;;;;17.60;67.70;;;;;;10100451;28;93491;-67
2023/03/20 00:47:27;;;;;;;;;;;17.60;67.80;;;;;;10099481;28;93587;-67
2023/03/20 00:52:28;;;;;;;;;;;17.60;67.70;;;;;;10084545;28;93421;-68
2023/03/20 00:57:35;;;;;;;;;;;17.60;67.50;;;;;;10100117;28;93325;-67
2023/03/20 01:02:36;;;;;;;;;;;17.60;67.50;;;;;;10099648;28;94865;-68
2023/03/20 01:07:39;;;;;;;;;;;17.60;67.40;;;;;;10079200;28;96299;-68
2023/03/20 01:12:41;;;;;;;;;;;17.60;67.40;;;;;;10099059;28;93376;-67
2023/03/20 01:17:43;;;;;;;;;;;17.50;67.30;;;;;;10099176;28;93690;-68
2023/03/20 01:22:45;;;;;;;;;;;17.60;67.30;;;;;;10099199;28;96142;-68
2023/03/20 01:27:51;;;;;;;;;;;17.50;67.20;;;;;;10082242;28;93192;-68
2023/03/20 01:32:53;;;;;;;;;;;17.50;67.10;;;;;;10097669;28;94624;-68
2023/03/20 01:37:56;;;;;;;;;;;17.50;67.20;;;;;;10092391;28;93588;-68
2023/03/20 01:42:58;;;;;;;;;;;17.50;67.10;;;;;;10092728;28;93872;-68
2023/03/20 01:48:01;;;;;;;;;;;17.50;67.00;;;;;;10091526;28;94256;-68
2023/03/20 01:53:06;;;;;;;;;;;17.50;67.00;;;;;;10092159;28;94461;-68
2023/03/20 01:58:11;;;;;;;;;;;17.50;67.00;;;;;;10089232;28;95849;-68
2023/03/20 02:03:14;;;;;;;;;;;17.50;66.90;;;;;;10092404;28;94130;-68
2023/03/20 02:08:27;;;;;;;;;;;17.40;66.90;;;;;;10073678;28;94474;-68
2023/03/20 02:13:30;;;;;;;;;;;17.40;66.90;;;;;;10091605;28;93934;-69
2023/03/20 02:18:32;;;;;;;;;;;17.40;66.80;;;;;;10090717;28;93958;-69
2023/03/20 02:23:45;;;;;;;;;;;17.40;66.70;;;;;;10089945;28;93676;-68
2023/03/20 02:28:59;;;;;;;;;;;17.40;66.70;;;;;;10090971;28;93414;-69
2023/03/20 02:34:10;;;;;;;;;;;17.40;66.60;;;;;;10091886;28;93196;-69
2023/03/20 02:39:16;;;;;;;;;;;17.40;66.60;;;;;;10089998;28;93497;-68
2023/03/20 02:44:35;;;;;;;;;;;17.40;66.50;;;;;;10089359;28;93675;-68
2023/03/20 02:49:49;;;;;;;;;;;17.40;66.50;;;;;;10087170;28;96027;-69
2023/03/20 02:55:05;;;;;;;;;;;17.40;66.40;;;;;;10073256;28;93957;-68
2023/03/20 03:00:23;;;;;;;;;;;17.40;66.30;;;;;;10090145;28;94447;-68
2023/03/20 03:05:29;;;;;;;;;;;17.40;66.20;;;;;;10087992;28;93527;-68
2023/03/20 03:10:33;;;;;;;;;;;17.40;66.20;;;;;;10089480;28;94703;-68
2023/03/20 03:15:37;;;;;;;;;;;17.40;66.10;;;;;;10072422;28;94470;-68
2023/03/20 03:20:40;;;;;;;;;;;17.40;66.00;;;;;;10089603;28;94648;-68
2023/03/20 03:25:42;;;;;;;;;;;17.30;66.00;;;;;;10089650;28;92732;-67
2023/03/20 03:30:45;;;;;;;;;;;17.30;65.90;;;;;;10071720;28;93363;-68
2023/03/20 03:35:48;;;;;;;;;;;17.30;65.90;;;;;;10072618;28;93189;-68
2023/03/20 03:40:58;;;;;;;;;;;17.30;65.80;;;;;;10068562;28;96456;-67
2023/03/20 03:46:09;;;;;;;;;;;17.30;65.70;;;;;;10087775;28;94545;-68
2023/03/20 03:51:13;;;;;;;;;;;17.30;65.70;;;;;;10087696;28;94625;-67
2023/03/20 03:56:16;;;;;;;;;;;17.30;65.70;;;;;;10087835;28;96322;-67
2023/03/20 04:01:19;;;;;;;;;;;17.30;65.70;;;;;;10086087;28;93803;-68
2023/03/20 04:06:21;;;;;;;;;;;17.30;65.60;;;;;;10087270;28;93503;-67
2023/03/20 04:11:24;;;;;;;;;;;17.30;65.70;;;;;;10055703;28;94475;-68
2023/03/20 04:16:25;;;;;;;;;;;17.20;65.50;;;;;;10071202;28;93006;-67
2023/03/20 04:21:27;;;;;;;;;;;17.20;65.40;;;;;;10087547;28;93638;-68
2023/03/20 04:26:29;;;;;;;;;;;17.20;65.40;;;;;;10086389;28;93406;-68
2023/03/20 04:31:31;;;;;;;;;;;17.20;65.30;;;;;;10068071;28;94951;-68
2023/03/20 04:36:33;;;;;;;;;;;17.20;65.40;;;;;;10087075;28;94443;-68
2023/03/20 04:41:35;;;;;;;;;;;17.20;65.40;;;;;;10087188;28;93514;-68
2023/03/20 06:04:17;;;;;;;;;;;17.10;64.80;;;;;;10117965;28;94591;-68
2023/03/20 06:09:18;;;;;;;;;;;17.20;64.70;;;;;;10132070;28;93515;-67
2023/03/20 06:14:20;;;;;;;;;;;17.20;64.60;;;;;;10132257;28;93654;-68
2023/03/20 06:19:22;;;;;;;;;;;17.20;64.50;;;;;;10131264;28;92914;-68
2023/03/20 06:24:24;;;;;;;;;;;17.20;64.40;;;;;;10112898;28;93294;-68
2023/03/20 06:29:26;;;;;;;;;;;17.20;64.40;;;;;;10128530;28;96960;-68
2023/03/20 06:34:29;;;;;;;;;;;17.20;65.30;;;;;;10130276;28;92813;-68
2023/03/20 06:39:31;;;;;;;;;;;17.20;64.20;;;;;;10129437;28;93497;-68
2023/03/20 06:44:32;;;;;;;;;;;17.20;64.20;;;;;;10130442;28;93201;-68
2023/03/20 06:49:35;;;;;;;;;;;17.20;64.20;;;;;;10149527;28;93575;-68
2023/03/20 06:54:36;;;;;;;;;;;17.20;65.20;;;;;;10169368;28;94124;-66
2023/03/20 06:59:38;;;;;;;;;;;17.20;65.10;;;;;;10169106;28;92794;-68
2023/03/20 07:04:40;;;;;;;;;;;17.20;66.20;;;;;;10169013;28;92575;-68
2023/03/20 07:09:42;;;;;;;;;;;17.30;66.50;;;;;;10168742;28;93742;-68
2023/03/20 07:14:44;;;;;;;;;;;17.30;65.90;;;;;;10151318;28;93477;-68
2023/03/20 07:19:46;;;;;;;;;;;17.20;66.20;;;;;;10166215;28;95808;-68
2023/03/20 07:24:48;;;;;;;;;;;17.30;66.30;;;;;;10151373;28;93745;-68
2023/03/20 07:29:50;;;;;;;;;;;17.30;66.10;;;;;;10168385;28;93082;-68
2023/03/20 07:34:51;;;;;;;;;;;17.30;66.10;;;;;;10166460;28;93531;-68
2023/03/20 07:39:53;;;;;;;;;;;17.30;66.10;;;;;;10168791;28;94586;-68
2023/03/20 07:44:55;;;;;;;;;;;17.20;65.90;;;;;;10169209;28;94526;-68
2023/03/20 07:49:56;;;;;;;;;;;17.20;65.80;;;;;;10167545;28;94161;-70
2023/03/20 07:54:58;;;;;;;;;;;17.20;65.80;;;;;;10150588;28;92426;-69
2023/03/20 08:00:00;;;;;;;;;;;17.20;66.00;;;;;;10168291;28;93055;-69
2023/03/20 08:05:02;;;;;;;;;;;17.20;66.00;;;;;;10167234;28;94435;-70
2023/03/20 08:10:04;;;;;;;;;;;17.20;66.00;;;;;;10164503;28;96146;-69
2023/03/20 08:15:06;;;;;;;;;;;17.20;66.10;;;;;;10166091;28;93808;-69
2023/03/20 08:20:08;;;;;;;;;;;17.20;65.90;;;;;;10149776;28;93273;-67
2023/03/20 08:25:10;;;;;;;;;;;17.20;66.00;;;;;;10166185;28;93292;-69
2023/03/20 08:30:13;;;;;;;;;;;17.20;65.90;;;;;;10166543;28;94494;-70
2023/03/20 08:35:15;;;;;;;;;;;17.20;66.00;;;;;;10166999;28;94552;-69
2023/03/20 08:40:33;;;;;;;;;;;17.20;66.00;;;;;;10166778;28;94070;-70
2023/03/20 08:45:34;;;;;;;;;;;17.20;65.90;;;;;;10155392;28;92666;-70
2023/03/20 08:50:37;;;;;;;;;;;17.20;65.80;;;;;;10172297;28;94552;-70
2023/03/20 08:55:38;;;;;;;;;;;17.20;65.80;;;;;;10156385;28;93451;-71
2023/03/20 09:00:41;;;;;;;;;;;17.20;65.80;;;;;;10171621;28;95975;-70
2023/03/20 09:05:43;;;;;;;;;;;17.20;65.80;;;;;;10172724;28;92959;-71
2023/03/20 09:10:45;;;;;;;;;;;17.10;65.80;;;;;;10156285;28;93603;-71
2023/03/20 09:15:47;;;;;;;;;;;17.10;65.90;;;;;;10172800;28;93261;-71
2023/03/20 09:20:49;;;;;;;;;;;17.10;65.90;;;;;;10173425;28;93864;-71
2023/03/20 09:25:51;;;;;;;;;;;17.10;65.90;;;;;;10171616;28;93794;-70
2023/03/20 09:30:56;;;;;;;;;;;17.10;65.80;;;;;;10154419;28;93569;-70
2023/03/20 09:35:58;;;;;;;;;;;17.10;65.70;;;;;;10172037;28;92899;-70
2023/03/20 09:41:01;;;;;;;;;;;17.10;65.70;;;;;;10171549;28;92902;-70
2023/03/20 09:46:17;;;;;;;;;;;17.10;65.60;;;;;;10171321;28;94445;-69
2023/03/20 09:51:37;;;;;;;;;;;17.10;65.70;;;;;;10169574;28;98645;-71
2023/03/20 09:56:39;;;;;;;;;;;17.10;65.40;;;;;;10171940;28;94555;-71
2023/03/20 10:01:49;;;;;;;;;;;17.10;65.40;;;;;;10171211;28;93100;-71
2023/03/20 10:06:52;;;;;;;;;;;17.10;65.40;;;;;;10170630;28;93301;-70
2023/03/20 10:12:00;;;;;;;;;;;17.10;65.30;;;;;;10170914;28;93888;-71
2023/03/20 10:17:17;;;;;;;;;;;17.10;65.30;;;;;;10171933;28;94539;-69
2023/03/20 10:22:24;;;;;;;;;;;17.10;65.20;;;;;;10170363;28;93553;-70
2023/03/20 10:27:32;;;;;;;;;;;17.10;65.20;;;;;;10170722;28;94882;-70
2023/03/20 10:32:34;;;;;;;;;;;17.10;65.10;;;;;;10152983;28;93837;-70
2023/03/20 10:38:01;;;;;;;;;;;17.10;65.20;;;;;;10170809;28;94709;-70
2023/03/20 10:43:10;;;;;;;;;;;17.10;65.10;;;;;;10167454;28;96013;-71
2023/03/20 10:48:15;;;;;;;;;;;17.10;65.10;;;;;;10151922;28;94501;-70
2023/03/20 10:53:29;;;;;;;;;;;17.10;65.00;;;;;;10169729;28;94775;-70
2023/03/20 10:58:34;;;;;;;;;;;17.10;65.00;;;;;;10169501;28;93254;-70
2023/03/20 11:03:38;;;;;;;;;;;17.10;65.10;;;;;;10170330;28;93188;-70
2023/03/20 11:08:41;;;;;;;;;;;17.00;65.00;;;;;;10168745;28;93317;-69
2023/03/20 11:13:43;;;;;;;;;;;17.10;65.20;;;;;;10169582;28;94517;-70
2023/03/20 11:18:48;;;;;;;;;;;17.00;65.10;;;;;;10170040;28;93504;-70
2023/03/20 11:23:50;;;;;;;;;;;17.00;65.00;;;;;;10168607;28;93474;-70
2023/03/20 11:28:54;;;;;;;;;;;17.00;64.90;;;;;;10168401;28;93812;-70
2023/03/20 11:34:02;;;;;;;;;;;17.00;64.90;;;;;;10164819;28;95848;-70
2023/03/20 11:39:06;;;;;;;;;;;17.00;64.90;;;;;;10168113;28;93535;-70
2023/03/20 11:44:24;;;;;;;;;;;17.00;65.00;;;;;;10167522;28;94257;-70
2023/03/20 11:49:28;;;;;;;;;;;17.00;64.90;;;;;;10167694;28;93507;-70
2023/03/20 11:54:30;;;;;;;;;;;17.00;64.90;;;;;;10167586;28;94479;-70
2023/03/20 11:59:34;;;;;;;;;;;16.90;64.70;;;;;;10167057;28;93535;-70
2023/03/20 12:04:36;;;;;;;;;;;16.90;64.90;;;;;;10149224;28;93395;-70
2023/03/20 12:09:43;;;;;;;;;;;16.90;64.80;;;;;;10168251;28;93549;-70
2023/03/20 12:14:51;;;;;;;;;;;16.90;64.90;;;;;;10167808;28;93821;-70
2023/03/20 12:19:55;;;;;;;;;;;16.90;64.90;;;;;;10167072;28;93513;-70
2023/03/20 12:25:01;;;;;;;;;;;16.90;64.90;;;;;;10163639;28;95824;-70
2023/03/20 12:30:11;;;;;;;;;;;16.90;64.90;;;;;;10166868;28;93379;-70
2023/03/20 12:35:18;;;;;;;;;;;16.90;64.90;;;;;;10167317;28;94575;-70
2023/03/20 12:40:25;;;;;;;;;;;16.80;64.90;;;;;;10166767;28;93512;-71
2023/03/20 12:45:40;;;;;;;;;;;16.80;64.90;;;;;;10166309;28;93513;-70
2023/03/20 12:50:49;;;;;;;;;;;16.80;64.90;;;;;;10149737;28;94724;-70
2023/03/20 12:55:57;;;;;;;;;;;16.80;64.90;;;;;;10165896;28;93528;-70
2023/03/20 13:01:05;;;;;;;;;;;16.80;65.00;;;;;;10167426;28;92659;-70
2023/03/20 13:06:42;;;;;;;;;;;16.80;65.00;;;;;;10165562;28;93428;-70
2023/03/20 13:11:44;;;;;;;;;;;16.80;65.10;;;;;;10135245;28;93475;-70
2023/03/20 13:16:51;;;;;;;;;;;16.80;65.00;;;;;;10162528;28;95607;-69
2023/03/20 13:22:07;;;;;;;;;;;16.80;65.00;;;;;;10166383;28;94273;-70
2023/03/20 13:27:14;;;;;;;;;;;16.80;65.00;;;;;;10165225;28;93590;-70
2023/03/20 13:32:24;;;;;;;;;;;16.70;65.00;;;;;;10169507;28;94411;-70
2023/03/20 13:37:30;;;;;;;;;;;16.80;65.10;;;;;;10172137;28;92551;-70
2023/03/20 13:42:43;;;;;;;;;;;16.80;65.00;;;;;;10171525;28;93578;-70
2023/03/20 13:47:45;;;;;;;;;;;16.80;65.00;;;;;;10171164;28;93851;-69
2023/03/20 13:53:06;;;;;;;;;;;16.80;65.10;;;;;;10155440;28;92707;-70
2023/03/20 13:58:07;;;;;;;;;;;16.80;65.00;;;;;;10154122;28;94339;-69
2023/03/20 14:03:13;;;;;;;;;;;16.80;65.00;;;;;;10172090;28;93253;-69
2023/03/20 14:08:23;;;;;;;;;;;16.80;65.00;;;;;;10151814;28;97704;-70
2023/03/20 14:13:25;;;;;;;;;;;16.70;65.00;;;;;;10171744;28;94451;-69
2023/03/20 14:18:29;;;;;;;;;;;16.70;65.00;;;;;;10171529;28;95046;-70
2023/03/20 14:23:35;;;;;;;;;;;16.80;65.10;;;;;;10153690;28;95337;-70
2023/03/20 14:28:50;;;;;;;;;;;16.70;64.90;;;;;;10171372;28;94672;-69
2023/03/20 14:34:12;;;;;;;;;;;16.70;65.10;;;;;;10172231;28;95897;-70
2023/03/20 14:39:19;;;;;;;;;;;16.70;65.00;;;;;;10169889;28;93388;-70
2023/03/20 14:44:40;;;;;;;;;;;16.70;65.10;;;;;;10170752;28;92839;-70
2023/03/20 14:49:54;;;;;;;;;;;16.70;65.10;;;;;;10167724;28;93895;-70
2023/03/20 14:55:12;;;;;;;;;;;16.70;65.10;;;;;;10169458;28;93384;-69
2023/03/20 15:00:26;;;;;;;;;;;16.70;65.10;;;;;;10149170;28;95805;-70
2023/03/20 15:05:29;;;;;;;;;;;16.70;65.00;;;;;;10169950;28;94033;-70
2023/03/20 15:10:33;;;;;;;;;;;16.70;65.10;;;;;;10169151;28;93485;-70
2023/03/20 15:15:35;;;;;;;;;;;16.70;65.10;;;;;;10169178;28;94003;-70
2023/03/20 15:20:37;;;;;;;;;;;16.70;65.10;;;;;;10169494;28;93678;-69
2023/03/20 15:25:43;;;;;;;;;;;16.60;65.10;;;;;;10168338;28;94122;-70
2023/03/20 15:30:46;;;;;;;;;;;16.60;65.10;;;;;;10168258;28;93509;-70
2023/03/20 15:35:48;;;;;;;;;;;16.60;65.10;;;;;;10152381;28;92245;-70
2023/03/20 15:40:50;;;;;;;;;;;16.60;65.20;;;;;;10168025;28;94087;-70
2023/03/20 15:45:55;;;;;;;;;;;16.60;65.20;;;;;;10151586;28;95590;-70
2023/03/20 15:51:19;;;;;;;;;;;16.60;65.20;;;;;;10164593;28;95870;-70
2023/03/20 15:56:24;;;;;;;;;;;16.60;65.20;;;;;;10166794;28;93408;-70
2023/03/20 16:01:30;;;;;;;;;;;16.60;65.30;;;;;;10167555;28;94027;-70
2023/03/20 16:06:32;;;;;;;;;;;16.60;65.20;;;;;;10167357;28;96917;-70
2023/03/20 16:11:35;;;;;;;;;;;16.60;65.30;;;;;;10150497;28;93518;-70
2023/03/20 16:16:38;;;;;;;;;;;16.60;65.30;;;;;;10150422;28;93480;-70
2023/03/20 16:21:43;;;;;;;;;;;16.60;65.30;;;;;;10167627;28;93455;-69
2023/03/20 16:26:47;;;;;;;;;;;16.50;65.30;;;;;;10169371;28;94008;-69
2023/03/20 16:31:57;;;;;;;;;;;16.50;65.30;;;;;;10166969;28;93632;-69
2023/03/20 16:37:00;;;;;;;;;;;16.50;65.30;;;;;;10150727;28;94466;-70
2023/03/20 16:42:10;;;;;;;;;;;16.50;65.30;;;;;;10163681;28;94910;-69
2023/03/20 16:47:18;;;;;;;;;;;16.50;65.30;;;;;;10149273;28;93779;-69
2023/03/20 16:52:25;;;;;;;;;;;16.50;65.40;;;;;;10166144;28;92976;-69
2023/03/20 16:57:31;;;;;;;;;;;16.50;65.30;;;;;;10166296;28;94452;-69
2023/03/20 17:02:39;;;;;;;;;;;16.50;65.30;;;;;;10149262;28;93433;-69
2023/03/20 17:07:41;;;;;;;;;;;16.50;65.30;;;;;;10154418;28;93468;-70
2023/03/20 17:12:45;;;;;;;;;;;16.50;65.40;;;;;;10155590;28;93557;-69
2023/03/20 17:17:47;;;;;;;;;;;16.50;65.50;;;;;;10174024;28;92796;-69
2023/03/20 17:22:48;;;;;;;;;;;16.60;65.50;;;;;;10155560;28;94111;-69
2023/03/20 17:27:50;;;;;;;;;;;16.80;65.30;;;;;;10173569;28;94439;-69
2023/03/20 17:32:52;;;;;;;;;;;17.00;65.00;;;;;;10153487;28;95829;-69
2023/03/20 17:37:54;;;;;;;;;;;17.20;64.60;;;;;;10172811;28;93341;-69
2023/03/20 17:42:56;;;;;;;;;;;17.30;64.40;;;;;;10172643;28;93495;-69
2023/03/20 17:47:57;;;;;;;;;;;17.40;64.20;;;;;;10171558;28;93398;-69
2023/03/20 17:52:59;;;;;;;;;;;17.60;64.90;;;;;;10154803;28;93081;-69
2023/03/20 17:58:01;;;;;;;;;;;17.60;63.60;;;;;;10154560;28;94383;-69
2023/03/20 18:03:03;;;;;;;;;;;17.70;63.50;;;;;;10171473;28;92686;-69
2023/03/20 18:08:05;;;;;;;;;;;17.70;63.50;;;;;;10154521;28;92154;-69
2023/03/20 18:13:07;;;;;;;;;;;17.60;63.40;;;;;;10171167;28;94096;-67
2023/03/20 18:18:12;;;;;;;;;;;17.60;64.10;;;;;;10169933;28;94133;-70
2023/03/20 18:23:14;;;;;;;;;;;17.60;64.50;;;;;;10168419;28;96871;-69
2023/03/20 18:28:21;;;;;;;;;;;17.50;66.70;;;;;;10151790;28;93960;-70
2023/03/20 18:33:26;;;;;;;;;;;17.50;65.00;;;;;;10169410;28;93601;-70
2023/03/20 18:38:29;;;;;;;;;;;17.50;64.70;;;;;;10168428;28;93491;-70
2023/03/20 18:43:31;;;;;;;;;;;17.50;64.90;;;;;;10169323;28;93458;-70
2023/03/20 18:48:32;;;;;;;;;;;17.40;65.20;;;;;;10168160;28;93296;-70
2023/03/20 18:53:34;;;;;;;;;;;17.40;65.30;;;;;;10170135;28;93994;-70
2023/03/20 18:58:36;;;;;;;;;;;17.50;65.20;;;;;;10169788;28;92717;-68
2023/03/20 19:03:40;;;;;;;;;;;17.50;65.20;;;;;;10169167;28;93451;-70
2023/03/20 19:08:42;;;;;;;;;;;17.40;65.20;;;;;;10151004;28;93499;-67
2023/03/20 19:13:47;;;;;;;;;;;17.40;65.30;;;;;;10149130;28;95751;-68
2023/03/20 19:18:50;;;;;;;;;;;17.40;65.40;;;;;;10168161;28;93237;-67
2023/03/20 19:23:53;;;;;;;;;;;17.50;65.30;;;;;;10168101;28;93451;-68
2023/03/20 19:28:55;;;;;;;;;;;17.50;65.30;;;;;;10167317;28;92741;-68
2023/03/20 19:33:57;;;;;;;;;;;17.50;65.30;;;;;;10168369;28;94263;-67
2023/03/20 19:39:02;;;;;;;;;;;17.50;65.40;;;;;;10167513;28;114021;-66
2023/03/20 19:44:04;;;;;;;;;;;17.50;65.40;;;;;;10166659;28;93482;-66
2023/03/20 19:49:17;;;;;;;;;;;17.50;65.50;;;;;;10168132;28;92869;-67
2023/03/20 19:54:20;;;;;;;;;;;17.60;65.40;;;;;;10166772;28;93373;-67
2023/03/20 19:59:22;;;;;;;;;;;17.50;65.40;;;;;;10167828;28;93459;-67
2023/03/20 20:04:24;;;;;;;;;;;17.50;65.40;;;;;;10165157;28;96825;-66
2023/03/20 20:09:27;;;;;;;;;;;17.50;65.40;;;;;;10149083;28;93652;-68
2023/03/20 20:14:29;;;;;;;;;;;17.50;65.50;;;;;;10166962;28;93285;-67
2023/03/20 20:19:30;;;;;;;;;;;17.60;65.50;;;;;;10165834;28;93314;-67
2023/03/20 20:24:32;;;;;;;;;;;17.60;65.40;;;;;;10149342;28;93332;-67
2023/03/20 20:29:34;;;;;;;;;;;17.60;65.40;;;;;;10166353;28;93642;-68
2023/03/20 20:34:37;;;;;;;;;;;17.60;65.50;;;;;;10149730;28;93279;-67
2023/03/20 20:39:59;;;;;;;;;;;17.60;65.50;;;;;;10170712;28;91864;-68
2023/03/20 20:45:00;;;;;;;;;;;17.60;65.50;;;;;;10173108;28;96682;-67
2023/03/20 20:50:02;;;;;;;;;;;17.60;65.60;;;;;;10172655;28;94432;-67
2023/03/20 20:55:05;;;;;;;;;;;17.60;65.60;;;;;;10172682;28;95499;-69
2023/03/20 21:00:24;;;;;;;;;;;17.60;65.60;;;;;;10172756;28;93288;-69
2023/03/20 21:05:42;;;;;;;;;;;17.60;65.70;;;;;;10172742;28;93874;-67
2023/03/20 21:10:44;;;;;;;;;;;17.50;65.80;;;;;;10155461;28;93969;-68
2023/03/20 21:15:46;;;;;;;;;;;17.50;65.80;;;;;;10154898;28;93807;-68
2023/03/20 21:20:48;;;;;;;;;;;17.50;65.80;;;;;;10171725;28;94586;-67
2023/03/20 21:25:50;;;;;;;;;;;17.50;66.00;;;;;;10171393;28;93772;-68
2023/03/20 21:30:52;;;;;;;;;;;17.50;66.30;;;;;;10154625;28;92700;-69
2023/03/20 21:36:14;;;;;;;;;;;17.40;66.10;;;;;;10157770;28;95269;-67
2023/03/20 21:41:16;;;;;;;;;;;17.40;66.00;;;;;;10171725;28;93469;-68
2023/03/20 21:46:17;;;;;;;;;;;17.40;66.00;;;;;;10168631;28;96438;-69
2023/03/20 21:51:40;;;;;;;;;;;17.30;66.00;;;;;;10170159;28;94144;-68
2023/03/20 21:57:02;;;;;;;;;;;17.30;65.90;;;;;;10156845;28;96036;-68
2023/03/20 22:02:24;;;;;;;;;;;17.30;65.90;;;;;;10171801;28;96212;-68
2023/03/20 22:07:34;;;;;;;;;;;17.30;66.00;;;;;;10171080;28;93440;-68
2023/03/20 22:12:56;;;;;;;;;;;17.20;66.00;;;;;;10170858;28;95963;-69
2023/03/20 22:18:18;;;;;;;;;;;17.20;66.00;;;;;;10170423;28;93215;-68
2023/03/20 22:23:40;;;;;;;;;;;17.20;66.00;;;;;;10157260;28;92285;-68
2023/03/20 22:29:02;;;;;;;;;;;17.10;66.00;;;;;;10155094;28;95208;-69
2023/03/20 22:34:24;;;;;;;;;;;17.10;66.00;;;;;;10170211;28;93619;-69
2023/03/20 22:39:46;;;;;;;;;;;17.10;66.00;;;;;;10153379;28;96194;-69
2023/03/20 22:45:08;;;;;;;;;;;17.10;66.00;;;;;;10156100;28;93304;-70
2023/03/20 22:50:11;;;;;;;;;;;17.10;66.10;;;;;;10169457;28;93510;-70
2023/03/20 22:55:12;;;;;;;;;;;17.00;66.00;;;;;;10152411;28;93682;-70
2023/03/20 23:00:16;;;;;;;;;;;17.00;66.00;;;;;;10151467;28;93485;-69
2023/03/20 23:05:17;;;;;;;;;;;17.00;66.00;;;;;;10168896;28;93853;-69
2023/03/20 23:10:19;;;;;;;;;;;17.00;66.10;;;;;;10151429;28;94472;-69
2023/03/20 23:15:21;;;;;;;;;;;16.90;66.10;;;;;;10169537;28;93054;-70
2023/03/20 23:20:23;;;;;;;;;;;17.00;66.20;;;;;;10167958;28;93458;-69
2023/03/20 23:25:25;;;;;;;;;;;16.90;66.20;;;;;;10169073;28;94430;-70
2023/03/20 23:30:40;;;;;;;;;;;16.90;66.20;;;;;;10151218;28;95553;-69
2023/03/20 23:35:56;;;;;;;;;;;16.90;66.20;;;;;;10152451;28;93217;-70
2023/03/20 23:41:06;;;;;;;;;;;16.80;66.10;;;;;;10168905;28;93400;-70
2023/03/20 23:46:07;;;;;;;;;;;16.80;66.10;;;;;;10150349;28;93525;-69
2023/03/20 23:51:10;;;;;;;;;;;16.80;66.20;;;;;;10151485;28;93750;-70
2023/03/20 23:56:12;;;;;;;;;;;16.80;66.30;;;;;;10168143;28;94416;-69
